Time;durP1;ratioP1;P1;durP2;ratioP2;P2;SDS_P1;SDS_P2;PMS_P1;PMS_P2;Temp;Humidity;BMP_temperature;BMP_pressure;BME280_temperature;BME280_humidity;BME280_pressure;Samples;Min_cycle;Max_cycle;Signal;HPM_P1;HPM_P2
2021/01/21 00:01:12;;;;;;;27.38;19.30;;;6.50;84.60;;;;;;5073918;28;20044;-47
2021/01/21 00:03:38;;;;;;;13.65;8.50;;;6.40;87.20;;;;;;5074213;28;20081;-47
2021/01/21 00:06:04;;;;;;;10.25;6.78;;;6.30;86.00;;;;;;5074178;28;20035;-48
2021/01/21 00:08:30;;;;;;;12.63;6.82;;;6.20;86.30;;;;;;5038703;28;20124;-48
2021/01/21 00:10:56;;;;;;;10.75;6.60;;;6.10;86.70;;;;;;5074056;28;20024;-47
2021/01/21 00:13:21;;;;;;;9.25;6.55;;;6.10;86.80;;;;;;5073685;28;20082;-48
2021/01/21 00:15:47;;;;;;;9.82;6.55;;;6.10;86.90;;;;;;5073677;28;20033;-46
2021/01/21 00:18:13;;;;;;;11.38;7.20;;;6.00;87.30;;;;;;5073871;28;20028;-47
2021/01/21 00:20:38;;;;;;;10.95;6.10;;;6.10;87.00;;;;;;5073994;28;20060;-48
2021/01/21 00:23:04;;;;;;;9.00;5.60;;;6.10;87.30;;;;;;5073625;28;20044;-47
2021/01/21 00:25:30;;;;;;;12.10;7.00;;;6.00;87.80;;;;;;5073780;28;20123;-47
2021/01/21 00:27:56;;;;;;;10.77;6.47;;;6.10;93.60;;;;;;5073848;28;20037;-48
2021/01/21 00:30:21;;;;;;;11.45;6.45;;;6.00;94.00;;;;;;5073319;28;20032;-48
2021/01/21 00:32:47;;;;;;;16.00;8.25;;;6.10;90.70;;;;;;5038504;28;20049;-46
2021/01/21 00:35:18;;;;;;;13.95;8.13;;;6.10;90.90;;;;;;5073529;28;20090;-46
2021/01/21 00:37:44;;;;;;;8.88;5.07;;;6.10;92.00;;;;;;5073507;28;20514;-46
2021/01/21 00:40:11;;;;;;;9.73;6.35;;;;;;;;;;5072912;28;20032;-46
2021/01/21 00:42:36;;;;;;;8.77;5.50;;;6.20;95.10;;;;;;5073627;28;20115;-46
2021/01/21 00:45:04;;;;;;;8.80;5.38;;;;;;;;;;5037835;28;20128;-46
2021/01/21 00:47:29;;;;;;;12.95;9.00;;;6.40;93.90;;;;;;5031124;28;20049;-46
2021/01/21 00:49:55;;;;;;;22.15;14.13;;;6.40;90.20;;;;;;5031397;28;20084;-48
2021/01/21 00:52:21;;;;;;;17.52;11.05;;;6.30;87.10;;;;;;5031065;28;20041;-49
2021/01/21 00:54:47;;;;;;;13.50;8.68;;;6.40;86.40;;;;;;4981867;28;20050;-48
2021/01/21 00:57:13;;;;;;;13.02;7.38;;;6.10;89.50;;;;;;5031199;28;20072;-47
2021/01/21 00:59:39;;;;;;;13.90;9.10;;;6.20;93.00;;;;;;5031267;28;20114;-47
2021/01/21 01:02:05;;;;;;;15.68;9.82;;;6.20;96.20;;;;;;5030895;28;20112;-48
2021/01/21 01:04:31;;;;;;;17.65;10.82;;;6.00;97.00;;;;;;5031175;28;20037;-47
2021/01/21 01:06:56;;;;;;;17.73;11.52;;;6.10;99.00;;;;;;5031099;28;20041;-47
2021/01/21 01:09:22;;;;;;;15.50;10.32;;;;;;;;;;5030833;28;20052;-48
2021/01/21 01:11:48;;;;;;;14.00;8.80;;;6.10;99.90;;;;;;5031063;28;20393;-48
2021/01/21 01:14:14;;;;;;;13.40;8.65;;;6.20;94.60;;;;;;5031019;28;20060;-48
2021/01/21 01:16:40;;;;;;;15.88;9.38;;;6.00;96.50;;;;;;5030762;28;20041;-48
2021/01/21 01:19:06;;;;;;;12.13;9.00;;;6.00;97.70;;;;;;5063197;28;20055;-47
2021/01/21 01:21:32;;;;;;;13.98;9.50;;;5.70;90.50;;;;;;5073089;28;20423;-46
2021/01/21 01:23:58;;;;;;;16.77;9.65;;;5.60;89.20;;;;;;5072880;28;20078;-47
2021/01/21 01:26:24;;;;;;;14.98;9.45;;;5.60;89.50;;;;;;5073036;28;20032;-48
2021/01/21 01:28:49;;;;;;;20.70;12.40;;;5.60;93.90;;;;;;5073194;28;20119;-46
2021/01/21 01:31:15;;;;;;;18.77;12.30;;;5.60;96.00;;;;;;5072717;28;20401;-47
2021/01/21 01:33:41;;;;;;;15.75;9.70;;;5.40;90.40;;;;;;5073150;28;20045;-48
2021/01/21 01:36:07;;;;;;;16.60;9.70;;;;;;;;;;5073090;28;20036;-47
2021/01/21 01:38:33;;;;;;;13.30;9.25;;;5.20;90.80;;;;;;5054007;28;20069;-46
2021/01/21 01:40:59;;;;;;;16.95;9.70;;;5.20;90.90;;;;;;5072872;28;20064;-47
2021/01/21 01:43:25;;;;;;;12.50;6.13;;;5.20;91.00;;;;;;5072860;28;20059;-50
2021/01/21 01:45:51;;;;;;;6.95;4.95;;;5.40;90.90;;;;;;5072450;28;20024;-47
2021/01/21 01:48:18;;;;;;;6.47;4.25;;;5.50;90.60;;;;;;5072791;28;20051;-47
2021/01/21 01:50:45;;;;;;;8.88;5.72;;;;;;;;;;5072943;28;20035;-47
2021/01/21 01:53:11;;;;;;;10.02;6.00;;;6.20;99.90;;;;;;5058128;28;20495;-47
2021/01/21 01:55:40;;;;;;;9.57;6.22;;;5.70;89.80;;;;;;5076524;28;20044;-48
2021/01/21 01:58:09;;;;;;;7.78;5.18;;;5.70;89.70;;;;;;5075667;28;20166;-46
2021/01/21 02:00:35;;;;;;;7.82;5.28;;;5.60;90.20;;;;;;5075181;28;20047;-47
2021/01/21 02:03:02;;;;;;;5.78;3.95;;;5.50;90.50;;;;;;5076268;28;20032;-48
2021/01/21 02:05:27;;;;;;;5.70;3.60;;;5.40;91.20;;;;;;5076460;28;20039;-46
2021/01/21 02:07:53;;;;;;;4.65;2.90;;;5.50;92.10;;;;;;5076434;28;20127;-47
2021/01/21 02:10:20;;;;;;;3.67;2.30;;;5.60;92.10;;;;;;5008075;28;20400;-47
2021/01/21 02:13:13;;;;;;;4.63;2.50;;;5.70;91.00;;;;;;5076397;28;20028;-47
2021/01/21 02:15:54;;;;;;;4.00;2.50;;;5.70;90.60;;;;;;5076219;28;20052;-46
2021/01/21 02:18:23;;;;;;;4.00;2.28;;;5.70;90.50;;;;;;5075895;28;20033;-48
2021/01/21 02:20:51;;;;;;;4.47;2.50;;;5.70;90.60;;;;;;5076132;28;20029;-48
2021/01/21 02:23:29;;;;;;;4.68;2.65;;;5.90;90.30;;;;;;5075892;28;20423;-46
2021/01/21 02:26:04;;;;;;;4.53;3.00;;;6.10;95.80;;;;;;5075841;28;20036;-46
2021/01/21 02:28:50;;;;;;;4.05;2.65;;;5.90;91.00;;;;;;5075594;28;20613;-48
2021/01/21 02:31:33;;;;;;;4.40;2.40;;;5.80;91.30;;;;;;5075664;28;20119;-48
2021/01/21 02:34:07;;;;;;;2.17;1.48;;;5.90;93.60;;;;;;5075926;28;20044;-48
2021/01/21 02:36:49;;;;;;;2.33;1.58;;;6.30;93.00;;;;;;5075341;28;20119;-48
2021/01/21 02:39:16;;;;;;;5.57;2.47;;;6.30;89.70;;;;;;5075874;28;20123;-46
2021/01/21 02:41:41;;;;;;;3.35;2.00;;;6.30;89.50;;;;;;5075542;28;20071;-47
2021/01/21 02:44:07;;;;;;;3.47;1.85;;;6.40;89.70;;;;;;5007094;28;20071;-48
2021/01/21 02:46:33;;;;;;;4.72;1.65;;;;;;;;;;5075640;28;20036;-47
2021/01/21 02:48:59;;;;;;;3.70;2.17;;;;;;;;;;5075542;28;20078;-47
2021/01/21 02:51:34;;;;;;;2.85;1.60;;;;;;;;;;5075301;28;20025;-48
2021/01/21 02:54:24;;;;;;;4.07;1.90;;;6.90;99.90;;;;;;5075341;28;20036;-46
2021/01/21 02:56:55;;;;;;;4.75;2.30;;;6.50;88.50;;;;;;5075390;28;20036;-46
2021/01/21 02:59:24;;;;;;;5.93;2.72;;;6.60;89.50;;;;;;5075074;28;20115;-46
2021/01/21 03:01:51;;;;;;;1.95;1.38;;;6.70;90.00;;;;;;5075108;28;20076;-47
2021/01/21 03:04:19;;;;;;;6.35;2.10;;;6.50;88.20;;;;;;5074122;28;20078;-47
2021/01/21 03:06:45;;;;;;;3.25;1.90;;;6.60;88.10;;;;;;5074745;28;20035;-47
2021/01/21 03:09:11;;;;;;;2.58;1.40;;;6.80;93.80;;;;;;5075261;28;20076;-48
2021/01/21 03:11:37;;;;;;;3.05;1.80;;;;;;;;;;5075037;28;20028;-46
2021/01/21 03:14:03;;;;;;;3.13;1.70;;;7.20;90.60;;;;;;5074744;28;20040;-46
2021/01/21 03:16:29;;;;;;;4.68;2.08;;;7.00;86.10;;;;;;5040049;28;20473;-47
2021/01/21 03:18:55;;;;;;;3.05;1.60;;;7.00;85.70;;;;;;5075142;28;20037;-46
2021/01/21 03:21:20;;;;;;;3.28;2.03;;;7.10;85.90;;;;;;5074607;28;20086;-46
2021/01/21 03:23:47;;;;;;;2.15;1.38;;;7.00;85.00;;;;;;5056955;28;20020;-46
2021/01/21 03:26:13;;;;;;;3.10;1.50;;;7.00;85.10;;;;;;5074983;28;20025;-49
2021/01/21 03:28:40;;;;;;;2.25;1.25;;;7.10;84.60;;;;;;5074492;28;20050;-47
2021/01/21 03:31:06;;;;;;;3.33;1.67;;;6.80;85.40;;;;;;5036050;28;20120;-47
2021/01/21 03:33:32;;;;;;;3.72;2.20;;;6.70;86.10;;;;;;5054595;28;20524;-46
2021/01/21 03:35:58;;;;;;;3.15;2.58;;;6.70;86.30;;;;;;5054605;28;20086;-48
2021/01/21 03:38:23;;;;;;;3.40;1.58;;;6.70;86.30;;;;;;5053147;28;20045;-48
2021/01/21 03:40:49;;;;;;;4.20;2.25;;;6.70;86.60;;;;;;5054480;28;20583;-47
2021/01/21 03:43:15;;;;;;;3.28;2.22;;;6.70;86.50;;;;;;5054301;28;20025;-46
2021/01/21 03:45:41;;;;;;;3.60;2.47;;;6.80;86.10;;;;;;5054473;28;20392;-46
2021/01/21 03:48:07;;;;;;;4.53;2.83;;;6.80;86.20;;;;;;5054348;28;20496;-48
2021/01/21 03:50:32;;;;;;;5.60;3.13;;;6.90;88.50;;;;;;5031904;28;20109;-47
2021/01/21 03:52:58;;;;;;;5.05;2.85;;;;;;;;;;4982915;28;20037;-47
2021/01/21 03:55:24;;;;;;;6.32;3.13;;;6.70;85.70;;;;;;5032274;28;20045;-46
2021/01/21 03:57:50;;;;;;;5.88;3.28;;;6.60;86.20;;;;;;5031928;28;20512;-47
2021/01/21 04:00:16;;;;;;;5.95;4.07;;;6.50;86.70;;;;;;5032155;28;20473;-46
2021/01/21 04:02:42;;;;;;;6.70;4.03;;;;;;;;;;4982601;28;20046;-48
2021/01/21 04:05:08;;;;;;;13.30;6.57;;;6.20;87.80;;;;;;5031621;28;20037;-47
2021/01/21 04:07:34;;;;;;;7.88;4.68;;;6.00;88.80;;;;;;5031869;28;20116;-48
2021/01/21 04:10:00;;;;;;;9.15;4.50;;;6.00;89.10;;;;;;4966690;28;20135;-46
2021/01/21 04:12:25;;;;;;;5.50;3.50;;;6.10;89.00;;;;;;5031707;28;20037;-46
2021/01/21 04:14:51;;;;;;;7.30;4.28;;;6.00;90.10;;;;;;5031571;28;20060;-48
2021/01/21 04:17:17;;;;;;;12.75;6.70;;;5.90;89.90;;;;;;5031969;28;20128;-47
2021/01/21 04:19:42;;;;;;;11.23;7.93;;;5.90;90.20;;;;;;5031613;28;20099;-48
2021/01/21 04:22:08;;;;;;;8.43;5.38;;;5.60;90.40;;;;;;5031861;28;20050;-47
2021/01/21 04:24:34;;;;;;;16.60;9.75;;;5.80;90.30;;;;;;5031758;28;20033;-47
2021/01/21 04:27:00;;;;;;;23.30;11.02;;;5.80;90.20;;;;;;5033685;28;20033;-47
2021/01/21 04:29:25;;;;;;;8.93;5.57;;;5.80;90.10;;;;;;5053873;28;20505;-48
2021/01/21 04:31:51;;;;;;;17.02;9.20;;;5.90;90.10;;;;;;5067660;28;20119;-46
2021/01/21 04:34:17;;;;;;;10.82;7.28;;;6.00;90.00;;;;;;5073588;28;20431;-48
2021/01/21 04:36:42;;;;;;;9.82;6.57;;;6.00;89.70;;;;;;5073613;28;20074;-47
2021/01/21 04:39:08;;;;;;;9.38;6.20;;;6.10;90.00;;;;;;5074001;28;20043;-48
2021/01/21 04:41:34;;;;;;;16.55;8.07;;;6.10;89.90;;;;;;5073713;28;20364;-47
2021/01/21 04:44:00;;;;;;;8.95;5.22;;;6.20;90.00;;;;;;5073538;28;20044;-46
2021/01/21 04:46:27;;;;;;;6.32;4.50;;;6.20;89.70;;;;;;5073760;28;20060;-48
2021/01/21 04:48:54;;;;;;;9.57;5.70;;;6.10;89.50;;;;;;5073565;28;20028;-47
2021/01/21 04:51:21;;;;;;;7.85;4.95;;;6.20;89.50;;;;;;5073190;28;20033;-46
2021/01/21 04:53:52;;;;;;;10.25;6.40;;;6.00;89.90;;;;;;5073514;28;20033;-47
2021/01/21 04:56:38;;;;;;;8.50;5.57;;;6.00;90.10;;;;;;5038107;28;20505;-47
2021/01/21 04:59:09;;;;;;;10.02;6.72;;;5.90;90.10;;;;;;5073771;28;20093;-46
2021/01/21 05:01:36;;;;;;;12.70;7.05;;;;;;;;;;5073591;28;20064;-47
2021/01/21 05:04:04;;;;;;;8.82;6.65;;;6.00;89.80;;;;;;5073301;28;20047;-46
2021/01/21 05:06:31;;;;;;;8.25;5.47;;;5.80;90.30;;;;;;5055037;28;20040;-47
2021/01/21 05:08:58;;;;;;;9.07;5.95;;;5.90;90.30;;;;;;5073231;28;20086;-46
2021/01/21 05:11:24;;;;;;;10.05;6.07;;;5.80;90.60;;;;;;5073202;28;20032;-47
2021/01/21 05:13:50;;;;;;;29.00;13.18;;;5.80;90.50;;;;;;5073179;28;20400;-47
2021/01/21 05:16:15;;;;;;;11.07;6.00;;;5.90;90.40;;;;;;5073376;28;20032;-48
2021/01/21 05:18:41;;;;;;;8.73;5.65;;;;;;;;;;5054895;28;20120;-46
2021/01/21 05:21:07;;;;;;;6.38;4.30;;;5.80;90.30;;;;;;5072848;28;20067;-48
2021/01/21 05:23:33;;;;;;;9.18;5.30;;;5.90;90.40;;;;;;5038118;28;20055;-47
2021/01/21 05:25:59;;;;;;;11.07;5.57;;;5.90;90.40;;;;;;5073461;28;20543;-46
2021/01/21 05:28:26;;;;;;;7.07;4.65;;;;;;;;;;5077043;28;20040;-47
2021/01/21 05:30:53;;;;;;;8.15;4.22;;;5.80;92.50;;;;;;5076895;28;20053;-47
2021/01/21 05:33:20;;;;;;;6.47;4.43;;;5.60;91.70;;;;;;5076810;28;20479;-47
2021/01/21 05:35:51;;;;;;;7.97;4.28;;;5.40;91.60;;;;;;5076625;28;20465;-48
2021/01/21 05:38:16;;;;;;;5.95;4.57;;;5.30;91.80;;;;;;5077225;28;20032;-48
2021/01/21 05:40:45;;;;;;;7.88;5.22;;;5.10;92.10;;;;;;5076936;28;20028;-48
2021/01/21 05:43:14;;;;;;;7.68;4.60;;;5.10;92.20;;;;;;5076553;28;20090;-46
2021/01/21 05:45:43;;;;;;;6.30;3.97;;;4.90;92.50;;;;;;5076810;28;20103;-47
2021/01/21 05:48:12;;;;;;;4.22;2.95;;;4.80;92.70;;;;;;5076850;28;20032;-48
2021/01/21 05:50:38;;;;;;;9.30;6.20;;;4.70;93.10;;;;;;5076420;28;20031;-48
2021/01/21 05:53:06;;;;;;;5.78;3.50;;;;;;;;;;5041113;28;20119;-47
2021/01/21 05:55:36;;;;;;;9.27;5.50;;;4.80;99.90;;;;;;5076447;28;20052;-48
2021/01/21 05:58:02;;;;;;;9.80;6.15;;;;;;;;;;5040838;28;20082;-48
2021/01/21 06:00:30;;;;;;;8.32;5.18;;;5.20;99.90;;;;;;5041195;28;20036;-46
2021/01/21 06:02:57;;;;;;;8.63;5.57;;;;;;;;;;5076132;28;20028;-48
2021/01/21 06:05:23;;;;;;;12.95;7.75;;;5.10;92.00;;;;;;5076012;28;20017;-47
2021/01/21 06:07:50;;;;;;;7.78;5.22;;;5.20;92.20;;;;;;5076402;28;20025;-48
2021/01/21 06:10:18;;;;;;;7.82;5.38;;;5.20;92.10;;;;;;5076469;28;20024;-46
2021/01/21 06:12:45;;;;;;;8.80;7.30;;;5.30;91.90;;;;;;5076046;28;20067;-47
2021/01/21 06:15:14;;;;;;;7.28;4.57;;;4.90;92.30;;;;;;5075897;28;20032;-47
2021/01/21 06:17:44;;;;;;;6.50;4.47;;;5.00;95.10;;;;;;5076128;28;20036;-46
2021/01/21 06:20:11;;;;;;;3.72;2.85;;;;;;;;;;5075849;28;20085;-48
2021/01/21 06:22:43;;;;;;;16.75;10.68;;;4.50;93.20;;;;;;5040925;28;20029;-45
2021/01/21 06:25:17;;;;;;;6.78;3.80;;;4.70;93.20;;;;;;5075815;28;20105;-47
2021/01/21 06:27:45;;;;;;;8.02;5.13;;;4.70;93.50;;;;;;5075980;28;20166;-47
2021/01/21 06:30:13;;;;;;;9.63;3.97;;;4.80;93.20;;;;;;5075491;28;20033;-48
2021/01/21 06:33:02;;;;;;;5.47;3.30;;;4.70;93.20;;;;;;5024194;28;20505;-46
2021/01/21 06:35:33;;;;;;;6.03;2.83;;;4.60;93.60;;;;;;5076062;28;20044;-48
2021/01/21 06:38:06;;;;;;;6.57;4.50;;;4.50;93.70;;;;;;5074554;28;20042;-45
2021/01/21 06:40:35;;;;;;;5.55;3.47;;;4.50;93.80;;;;;;5075573;28;20029;-47
2021/01/21 06:43:12;;;;;;;31.42;17.23;;;4.60;93.80;;;;;;5075596;28;20021;-47
2021/01/21 06:45:38;;;;;;;27.08;15.27;;;4.60;93.60;;;;;;5075515;28;20020;-46
2021/01/21 06:48:06;;;;;;;6.38;4.97;;;4.70;93.70;;;;;;5075456;28;20479;-48
2021/01/21 06:50:32;;;;;;;16.33;7.90;;;4.90;93.30;;;;;;5075434;28;20036;-48
2021/01/21 06:53:02;;;;;;;23.42;11.48;;;5.10;92.90;;;;;;5075257;28;20135;-46
2021/01/21 06:55:29;;;;;;;29.15;16.65;;;5.00;92.60;;;;;;5075023;28;20036;-48
2021/01/21 06:57:55;;;;;;;17.58;4.72;;;5.10;92.60;;;;;;5075289;28;20384;-49
2021/01/21 07:00:43;;;;;;;8.82;5.65;;;5.00;92.60;;;;;;5075200;28;20035;-48
2021/01/21 07:03:29;;;;;;;10.63;8.98;;;5.10;92.80;;;;;;5076736;28;20114;-46
2021/01/21 07:05:56;;;;;;;5.70;3.67;;;;;;;;;;5081429;28;20356;-47
2021/01/21 07:08:21;;;;;;;10.85;6.63;;;5.40;91.60;;;;;;5083378;28;20090;-48
2021/01/21 07:10:49;;;;;;;7.78;4.32;;;5.70;91.50;;;;;;5085178;28;20070;-47
2021/01/21 07:13:19;;;;;;;4.13;2.65;;;5.70;91.40;;;;;;5084376;28;20436;-46
2021/01/21 07:15:48;;;;;;;9.25;6.15;;;5.50;91.80;;;;;;5095191;28;20020;-47
2021/01/21 07:18:16;;;;;;;4.40;3.45;;;6.00;91.10;;;;;;5094979;28;20020;-48
2021/01/21 07:21:03;;;;;;;10.18;7.40;;;5.50;91.50;;;;;;5095230;28;20097;-46
2021/01/21 07:23:49;;;;;;;11.70;6.85;;;6.20;91.00;;;;;;5076499;28;20036;-48
2021/01/21 07:26:15;;;;;;;17.02;6.68;;;6.50;89.70;;;;;;5094630;28;20020;-48
2021/01/21 07:29:01;;;;;;;6.55;4.43;;;6.80;89.10;;;;;;5095066;28;20027;-45
2021/01/21 07:31:28;;;;;;;12.82;6.65;;;6.60;88.50;;;;;;5094937;28;20051;-48
2021/01/21 07:34:31;;;;;;;13.32;8.18;;;6.40;89.30;;;;;;5094924;28;20065;-47
2021/01/21 07:37:17;;;;;;;12.10;8.25;;;6.20;90.20;;;;;;5042376;28;20082;-53
2021/01/21 07:39:56;;;;;;;13.70;9.15;;;5.80;90.80;;;;;;5095003;28;20028;-53
2021/01/21 07:42:38;;;;;;;14.63;9.75;;;5.90;91.10;;;;;;5082479;28;20052;-54
2021/01/21 07:45:04;;;;;;;;;;;5.80;91.30;;;;;;5085328;28;20031;-52
2021/01/21 07:47:32;;;;;;;28.58;16.42;;;6.00;91.30;;;;;;5094478;28;20334;-52
2021/01/21 07:50:30;;;;;;;53.38;30.17;;;6.40;90.70;;;;;;5091804;28;20067;-54
2021/01/21 07:52:58;;;;;;;61.30;28.00;;;7.30;87.90;;;;;;4992858;28;20038;-53
2021/01/21 07:55:28;;;;;;;73.30;35.92;;;6.70;87.90;;;;;;4944188;28;20046;-49
2021/01/21 07:58:12;;;;;;;46.10;18.25;;;6.50;89.20;;;;;;4993051;28;20042;-52
2021/01/21 08:00:38;;;;;;;90.53;42.63;;;6.10;90.20;;;;;;4992866;28;20053;-52
2021/01/21 08:03:04;;;;;;;60.83;27.23;;;5.70;91.10;;;;;;4992322;28;20067;-48
2021/01/21 08:05:30;;;;;;;56.22;25.08;;;5.80;91.10;;;;;;4944419;28;20098;-52
2021/01/21 08:07:56;;;;;;;53.65;26.92;;;6.30;90.80;;;;;;4992759;28;20026;-52
2021/01/21 08:10:24;;;;;;;49.90;24.52;;;7.50;89.00;;;;;;4992384;28;20034;-50
2021/01/21 08:12:58;;;;;;;54.55;26.63;;;8.50;84.10;;;;;;4992626;28;20030;-49
2021/01/21 08:15:25;;;;;;;78.25;33.95;;;9.30;79.60;;;;;;4991954;28;20046;-50
2021/01/21 08:17:52;;;;;;;75.60;34.45;;;9.70;76.60;;;;;;4992201;28;20034;-51
2021/01/21 08:20:20;;;;;;;155.10;67.50;;;9.90;76.20;;;;;;4992455;28;20114;-53
2021/01/21 08:23:00;;;;;;;147.20;69.05;;;11.60;72.30;;;;;;4992753;28;20399;-53
2021/01/21 08:25:27;;;;;;;137.52;63.22;;;;;;;;;;4991847;28;20035;-51
2021/01/21 08:27:54;;;;;;;129.10;61.15;;;13.00;91.10;;;;;;4992430;28;20474;-52
2021/01/21 08:30:20;;;;;;;101.40;52.15;;;;;;;;;;5088550;28;20345;-51
2021/01/21 08:33:08;;;;;;;80.30;45.33;;;14.90;91.50;;;;;;5093933;28;20468;-51
2021/01/21 08:35:53;;;;;;;41.25;26.70;;;16.30;56.20;;;;;;5092424;28;20032;-55
2021/01/21 08:38:42;;;;;;;32.78;24.70;;;;;;;;;;5093949;28;20111;-53
2021/01/21 08:41:12;;;;;;;22.88;18.15;;;;;;;;;;5074750;28;20109;-55
2021/01/21 08:43:40;;;;;;;17.17;13.88;;;18.20;50.60;;;;;;5093679;28;20480;-50
2021/01/21 08:46:12;;;;;;;13.15;10.85;;;;;;;;;;5093470;28;20046;-52
2021/01/21 08:48:38;;;;;;;14.13;11.88;;;18.60;48.10;;;;;;5093354;28;20032;-55
2021/01/21 08:51:04;;;;;;;14.95;12.88;;;19.30;48.20;;;;;;5093378;28;20024;-50
2021/01/21 08:53:30;;;;;;;14.05;11.73;;;19.10;45.60;;;;;;5093405;28;20059;-55
2021/01/21 08:55:57;;;;;;;20.63;14.80;;;19.80;45.50;;;;;;5093532;28;20028;-53
2021/01/21 08:58:31;;;;;;;16.92;14.07;;;19.60;46.00;;;;;;5057967;28;20123;-53
2021/01/21 09:01:06;;;;;;;15.73;14.07;;;19.80;44.60;;;;;;5092340;28;20369;-54
2021/01/21 09:03:48;;;;;;;16.48;13.82;;;20.20;44.00;;;;;;5093379;28;20074;-52
2021/01/21 09:06:17;;;;;;;17.35;14.30;;;19.10;44.40;;;;;;5093331;28;20040;-56
2021/01/21 09:08:49;;;;;;;17.98;14.82;;;19.50;44.60;;;;;;5093247;28;20063;-54
2021/01/21 09:11:38;;;;;;;16.33;14.55;;;18.40;46.50;;;;;;5093349;28;20028;-53
2021/01/21 09:14:06;;;;;;;16.23;14.45;;;17.50;48.90;;;;;;5093089;28;20123;-52
2021/01/21 09:16:49;;;;;;;18.33;16.42;;;18.50;49.90;;;;;;5093331;28;20349;-54
2021/01/21 09:19:27;;;;;;;17.25;15.55;;;19.30;78.40;;;;;;5093346;28;20024;-52
2021/01/21 09:22:07;;;;;;;17.65;16.00;;;19.90;58.30;;;;;;5057830;28;20119;-53
2021/01/21 09:24:34;;;;;;;16.67;15.07;;;;;;;;;;5057655;28;20033;-55
2021/01/21 09:27:16;;;;;;;25.60;23.13;;;;;;;;;;5093244;28;20028;-53
2021/01/21 09:29:47;;;;;;;20.25;18.13;;;21.30;42.20;;;;;;5093397;28;20341;-54
2021/01/21 09:32:15;;;;;;;17.73;16.02;;;22.80;49.20;;;;;;5093172;28;20040;-52
2021/01/21 09:35:03;;;;;;;16.70;15.18;;;24.10;40.00;;;;;;5092944;28;20066;-51
2021/01/21 09:37:37;;;;;;;19.95;18.55;;;23.00;39.60;;;;;;5093619;28;20020;-54
2021/01/21 09:40:06;;;;;;;16.33;14.93;;;22.60;40.50;;;;;;5092726;28;20032;-51
2021/01/21 09:42:32;;;;;;;20.33;18.70;;;22.90;41.10;;;;;;5041004;28;20101;-53
2021/01/21 09:44:59;;;;;;;22.55;20.75;;;23.10;39.50;;;;;;5093083;28;20066;-52
2021/01/21 09:47:25;;;;;;;32.20;30.00;;;23.00;39.20;;;;;;5092992;28;20384;-55
2021/01/21 09:49:51;;;;;;;36.67;34.40;;;23.60;38.80;;;;;;5093404;28;20032;-53
2021/01/21 09:52:17;;;;;;;20.88;19.35;;;24.00;37.80;;;;;;5093314;28;20121;-55
2021/01/21 09:54:43;;;;;;;37.63;35.45;;;24.10;37.80;;;;;;5092789;28;20036;-52
2021/01/21 09:57:08;;;;;;;30.65;28.63;;;24.10;36.90;;;;;;5093066;28;20024;-53
2021/01/21 09:59:34;;;;;;;23.90;22.20;;;23.70;37.00;;;;;;5093262;28;20028;-54
2021/01/21 10:02:01;;;;;;;56.25;53.25;;;24.70;37.10;;;;;;5057222;28;20480;-55
2021/01/21 10:04:26;;;;;;;26.17;24.35;;;23.50;38.00;;;;;;5093136;28;20090;-53
2021/01/21 10:06:52;;;;;;;39.42;37.03;;;;;;;;;;5074519;28;20455;-54
2021/01/21 10:09:19;;;;;;;21.60;20.00;;;;;;;;;;5093110;28;20024;-53
2021/01/21 10:11:45;;;;;;;24.52;22.70;;;;;;;;;;5090523;28;20362;-53
2021/01/21 10:14:11;;;;;;;54.13;50.88;;;24.50;50.40;;;;;;5094001;28;20123;-52
2021/01/21 10:16:37;;;;;;;28.90;26.33;;;;;;;;;;5096309;28;20111;-52
2021/01/21 10:19:03;;;;;;;72.38;68.22;;;24.90;55.40;;;;;;5061136;28;20036;-52
2021/01/21 10:21:29;;;;;;;36.35;33.53;;;24.50;55.80;;;;;;5060710;28;20503;-52
2021/01/21 10:23:55;;;;;;;162.27;153.85;;;24.50;54.70;;;;;;5060579;28;20036;-54
2021/01/21 10:26:21;;;;;;;106.68;100.75;;;22.70;40.80;;;;;;5096200;28;20024;-53
2021/01/21 10:28:48;;;;;;;154.60;146.93;;;22.80;42.50;;;;;;5096425;28;20619;-52
2021/01/21 10:31:14;;;;;;;204.77;194.73;;;;;;;;;;5095689;28;20064;-53
2021/01/21 10:33:41;;;;;;;68.65;64.82;;;22.80;41.50;;;;;;5096123;28;20080;-52
2021/01/21 10:36:08;;;;;;;96.90;89.43;;;24.50;40.40;;;;;;5087256;28;20033;-51
2021/01/21 10:38:34;;;;;;;57.10;53.30;;;;;;;;;;5075477;28;20024;-54
2021/01/21 10:41:01;;;;;;;85.65;80.18;;;24.80;38.50;;;;;;5075684;28;20032;-54
2021/01/21 10:43:27;;;;;;;34.97;31.38;;;23.80;40.20;;;;;;5075769;28;20021;-53
2021/01/21 10:45:53;;;;;;;48.45;45.33;;;24.40;40.10;;;;;;5057404;28;20059;-54
2021/01/21 10:48:19;;;;;;;59.28;55.67;;;25.00;38.60;;;;;;5075579;28;20454;-53
2021/01/21 10:50:45;;;;;;;60.88;57.88;;;25.40;37.70;;;;;;5023575;28;20037;-54
2021/01/21 10:53:11;;;;;;;24.30;22.23;;;24.70;38.20;;;;;;5075032;28;20025;-52
2021/01/21 10:55:37;;;;;;;29.17;26.48;;;25.30;39.00;;;;;;5075592;28;20027;-52
2021/01/21 10:58:06;;;;;;;43.00;39.63;;;25.80;38.20;;;;;;5057615;28;20021;-52
2021/01/21 11:00:32;;;;;;;64.50;60.47;;;26.20;37.00;;;;;;4990608;28;20040;-52
2021/01/21 11:02:58;;;;;;;65.85;61.45;;;25.40;36.60;;;;;;5075396;28;20542;-50
2021/01/21 11:05:24;;;;;;;57.65;51.97;;;24.90;36.70;;;;;;5075267;28;20074;-51
2021/01/21 11:07:50;;;;;;;28.77;26.55;;;23.20;39.80;;;;;;5074923;28;20107;-51
2021/01/21 11:10:15;;;;;;;36.75;34.20;;;23.90;40.10;;;;;;5074688;28;20028;-50
2021/01/21 11:12:47;;;;;;;26.65;23.95;;;24.10;39.00;;;;;;5056241;28;20033;-48
2021/01/21 11:15:13;;;;;;;14.38;13.32;;;23.30;40.40;;;;;;5024559;28;20060;-52
2021/01/21 11:17:39;;;;;;;25.85;24.38;;;23.80;38.90;;;;;;5056522;28;20029;-51
2021/01/21 11:20:05;;;;;;;24.77;23.50;;;23.10;38.90;;;;;;5074949;28;20074;-49
2021/01/21 11:22:31;;;;;;;29.40;26.73;;;23.20;38.50;;;;;;5074635;28;20024;-51
2021/01/21 11:24:57;;;;;;;25.63;24.00;;;23.10;39.40;;;;;;5038628;28;20044;-51
2021/01/21 11:27:23;;;;;;;11.48;10.57;;;23.30;39.00;;;;;;5039740;28;20055;-52
2021/01/21 11:29:48;;;;;;;25.33;23.27;;;23.60;38.10;;;;;;5074326;28;20029;-53
2021/01/21 11:32:14;;;;;;;30.35;27.83;;;22.20;40.90;;;;;;5074542;28;20049;-52
2021/01/21 11:34:40;;;;;;;39.65;36.70;;;21.00;43.60;;;;;;5074564;28;20037;-52
2021/01/21 11:37:06;;;;;;;32.15;29.05;;;21.30;44.70;;;;;;5074160;28;20027;-52
2021/01/21 11:39:31;;;;;;;31.23;28.77;;;21.00;44.50;;;;;;5039298;28;20044;-52
2021/01/21 11:41:57;;;;;;;27.20;24.67;;;20.50;44.50;;;;;;5076214;28;20112;-52
2021/01/21 11:44:23;;;;;;;22.80;20.45;;;21.10;44.40;;;;;;5040016;28;20055;-52
2021/01/21 11:46:48;;;;;;;24.10;22.50;;;21.20;46.00;;;;;;5073438;28;20025;-53
2021/01/21 11:49:14;;;;;;;19.65;18.17;;;22.10;43.60;;;;;;5073801;28;20036;-52
2021/01/21 11:51:40;;;;;;;19.85;18.20;;;21.90;43.40;;;;;;5073175;28;20115;-52
2021/01/21 11:54:06;;;;;;;33.95;31.45;;;22.30;43.40;;;;;;5038168;28;20052;-52
2021/01/21 11:56:32;;;;;;;19.15;17.65;;;21.90;42.80;;;;;;5073615;28;20021;-52
2021/01/21 11:58:57;;;;;;;16.23;14.63;;;21.70;44.30;;;;;;5072969;28;20060;-52
2021/01/21 12:01:23;;;;;;;24.13;19.63;;;21.80;44.60;;;;;;5073651;28;20025;-51
2021/01/21 12:03:49;;;;;;;26.73;24.60;;;21.60;46.10;;;;;;5073527;28;20051;-52
2021/01/21 12:06:15;;;;;;;42.95;39.88;;;21.50;45.70;;;;;;5072889;28;20472;-52
2021/01/21 12:08:40;;;;;;;18.70;16.90;;;21.00;45.80;;;;;;5073352;28;20175;-52
2021/01/21 12:11:06;;;;;;;23.65;21.08;;;21.30;47.10;;;;;;5073420;28;20074;-52
2021/01/21 12:13:32;;;;;;;14.82;9.93;;;21.30;47.20;;;;;;5073329;28;20028;-53
2021/01/21 12:15:59;;;;;;;18.10;12.40;;;21.00;46.30;;;;;;5073633;28;20056;-51
2021/01/21 12:18:26;;;;;;;16.50;13.13;;;20.60;48.30;;;;;;5073348;28;20060;-52
2021/01/21 12:20:52;;;;;;;21.90;15.48;;;20.70;47.80;;;;;;5072942;28;20039;-53
2021/01/21 12:23:18;;;;;;;26.50;17.30;;;20.60;47.30;;;;;;5073310;28;20024;-51
2021/01/21 12:25:44;;;;;;;16.75;10.38;;;19.80;49.30;;;;;;5038438;28;20111;-51
2021/01/21 12:28:10;;;;;;;18.45;12.65;;;19.50;50.50;;;;;;5073080;28;20035;-52
2021/01/21 12:30:35;;;;;;;11.70;8.35;;;19.60;51.90;;;;;;5073348;28;20174;-52
2021/01/21 12:33:01;;;;;;;12.65;8.48;;;19.70;51.90;;;;;;5073317;28;20127;-52
2021/01/21 12:35:27;;;;;;;13.85;9.57;;;19.90;51.90;;;;;;5038056;28;20492;-51
2021/01/21 12:37:53;;;;;;;12.30;9.02;;;20.10;51.30;;;;;;5073384;28;20029;-52
2021/01/21 12:40:18;;;;;;;13.57;8.02;;;20.50;50.40;;;;;;5073273;28;20520;-52
2021/01/21 12:42:44;;;;;;;13.65;9.07;;;20.80;49.60;;;;;;5072728;28;20028;-53
2021/01/21 12:45:10;;;;;;;14.23;8.15;;;20.90;48.40;;;;;;5004663;28;20124;-52
2021/01/21 12:47:36;;;;;;;12.80;8.63;;;20.90;49.10;;;;;;5073106;28;20035;-53
2021/01/21 12:50:02;;;;;;;22.25;13.75;;;20.90;48.10;;;;;;5073252;28;20029;-52
2021/01/21 12:52:28;;;;;;;15.70;10.88;;;20.70;49.50;;;;;;5072883;28;20024;-52
2021/01/21 12:54:57;;;;;;;15.82;10.73;;;20.80;49.00;;;;;;5073104;28;20043;-53
2021/01/21 12:57:23;;;;;;;12.27;7.75;;;20.70;47.00;;;;;;5078789;28;20032;-52
2021/01/21 12:59:48;;;;;;;9.63;5.72;;;20.70;48.90;;;;;;5074751;28;20040;-52